Time;durP1;ratioP1;P1;durP2;ratioP2;P2;SDS_P1;SDS_P2;PMS_P1;PMS_P2;Temp;Humidity;BMP_temperature;BMP_pressure;BME280_temperature;BME280_humidity;BME280_pressure;Samples;Min_cycle;Max_cycle;Signal;HPM_P1;HPM_P2
2023/11/30 00:02:03;;;;;;;;;18.00;17.00;;;;;7.65;70.62;99887.69;5064186;28;45319;-56
2023/11/30 00:04:28;;;;;;;;;19.67;15.67;;;;;7.67;70.71;99880.56;5061436;28;45304;-57
2023/11/30 00:06:54;;;;;;;;;15.00;13.00;;;;;7.64;70.57;99875.44;5062275;28;45428;-58
2023/11/30 00:09:19;;;;;;;;;17.33;16.00;;;;;7.66;70.49;99872.69;5060673;28;58615;-58
2023/11/30 00:11:44;;;;;;;;;15.67;14.67;;;;;7.68;70.81;99869.03;5061110;28;45346;-57
2023/11/30 00:14:10;;;;;;;;;21.00;18.33;;;;;7.71;70.70;99868.84;5060943;28;45470;-57
2023/11/30 00:16:35;;;;;;;;;16.67;15.67;;;;;7.72;70.67;99865.28;5059600;28;75854;-57
2023/11/30 00:19:00;;;;;;;;;21.00;17.00;;;;;7.71;70.75;99863.56;5058458;28;73330;-57
2023/11/30 00:21:26;;;;;;;;;16.67;16.67;;;;;7.70;70.67;99856.56;5060082;28;68313;-56
2023/11/30 00:23:51;;;;;;;;;18.33;18.33;;;;;7.70;70.86;99853.91;5062649;28;70429;-57
2023/11/30 00:26:16;;;;;;;;;16.00;15.67;;;;;7.70;70.74;99845.97;5060289;28;47475;-57
2023/11/30 00:28:42;;;;;;;;;17.67;16.67;;;;;7.71;70.67;99844.19;5060474;28;45453;-57
2023/11/30 00:31:07;;;;;;;;;15.33;14.00;;;;;7.71;70.87;99836.25;5059035;28;67280;-57
2023/11/30 00:33:33;;;;;;;;;16.00;15.33;;;;;7.70;70.91;99843.31;5061076;28;45371;-58
2023/11/30 00:35:58;;;;;;;;;20.00;16.33;;;;;7.70;70.88;99830.09;5057111;28;46446;-56
2023/11/30 00:38:23;;;;;;;;;18.00;16.00;;;;;7.70;71.10;99816.00;5059478;28;72948;-56
2023/11/30 00:40:49;;;;;;;;;20.00;16.33;;;;;7.71;71.04;99817.72;5057845;28;69357;-57
2023/11/30 00:43:14;;;;;;;;;20.00;18.67;;;;;7.71;71.04;99813.28;5062664;28;66873;-57
2023/11/30 00:45:39;;;;;;;;;18.33;17.33;;;;;7.70;71.13;99811.56;5059800;28;68174;-57
2023/11/30 00:48:05;;;;;;;;;17.00;17.00;;;;;7.69;71.24;99822.22;5060155;28;45284;-57
2023/11/30 00:50:30;;;;;;;;;15.33;14.33;;;;;7.68;71.29;99817.88;5059337;28;45375;-58
2023/11/30 00:52:55;;;;;;;;;17.00;16.67;;;;;7.62;71.27;99798.72;5056647;28;71454;-58
2023/11/30 00:55:21;;;;;;;;;21.33;16.00;;;;;7.59;71.30;99798.06;5062427;28;60838;-57
2023/11/30 00:57:46;;;;;;;;;18.00;18.00;;;;;7.55;71.16;99810.59;5058955;28;72323;-56
2023/11/30 01:00:12;;;;;;;;;24.67;17.00;;;;;7.52;71.47;99807.25;5060341;28;45306;-58
2023/11/30 01:02:40;;;;;;;;;17.00;17.00;;;;;7.51;71.72;99805.53;5060447;28;45311;-57
2023/11/30 01:05:06;;;;;;;;;16.00;16.00;;;;;7.49;71.57;99804.78;5060905;28;47177;-58
2023/11/30 01:07:32;;;;;;;;;17.33;16.33;;;;;7.45;71.54;99790.84;5059973;28;45253;-57
2023/11/30 01:09:57;;;;;;;;;16.33;16.33;;;;;7.43;71.55;99798.88;5057340;28;45421;-57
2023/11/30 01:12:23;;;;;;;;;19.67;17.33;;;;;7.40;71.81;99796.38;5057746;28;70498;-58
2023/11/30 01:14:49;;;;;;;;;19.33;17.33;;;;;7.38;71.86;99800.91;5062102;28;45810;-58
2023/11/30 01:17:14;;;;;;;;;12.00;10.67;;;;;7.37;71.99;99793.91;5058041;28;73136;-57
2023/11/30 01:19:40;;;;;;;;;16.67;15.33;;;;;7.34;72.10;99786.13;5058388;28;45629;-57
2023/11/30 01:22:06;;;;;;;;;16.00;16.00;;;;;7.30;72.48;99787.25;5058490;28;70533;-57
2023/11/30 01:24:31;;;;;;;;;20.67;18.00;;;;;7.26;72.41;99790.94;5055322;28;45383;-56
2023/11/30 01:26:57;;;;;;;;;21.00;20.00;;;;;7.21;72.70;99788.56;5057945;28;45386;-57
2023/11/30 01:29:22;;;;;;;;;20.67;19.33;;;;;7.17;72.87;99787.03;5059103;28;69563;-57
2023/11/30 01:31:47;;;;;;;;;22.67;20.33;;;;;7.15;72.89;99783.59;5057664;28;64776;-56
2023/11/30 01:34:13;;;;;;;;;19.33;15.33;;;;;7.13;72.86;99785.44;5058121;28;75555;-56
2023/11/30 01:36:38;;;;;;;;;24.00;21.00;;;;;7.13;72.99;99782.78;5058551;28;71306;-57
2023/11/30 01:39:03;;;;;;;;;26.00;20.67;;;;;7.12;73.19;99789.88;5058572;28;69285;-57
2023/11/30 01:41:29;;;;;;;;;21.67;19.00;;;;;7.14;73.10;99789.81;5058009;28;70485;-56
2023/11/30 01:43:54;;;;;;;;;27.33;24.00;;;;;7.15;73.05;99785.38;5063547;28;74662;-57
2023/11/30 01:46:19;;;;;;;;;20.33;18.33;;;;;7.16;73.16;99784.44;5060352;28;70461;-56
2023/11/30 01:48:45;;;;;;;;;23.00;21.00;;;;;7.16;73.22;99784.44;5058556;28;66453;-56
2023/11/30 01:51:11;;;;;;;;;22.67;22.33;;;;;7.17;73.17;99780.84;5057953;28;45481;-58
2023/11/30 01:53:38;;;;;;;;;22.00;22.00;;;;;7.17;73.31;99788.78;5058920;28;46546;-57
2023/11/30 01:56:06;;;;;;;;;24.00;20.33;;;;;7.17;73.14;99775.56;5058833;28;45674;-57
2023/11/30 01:58:31;;;;;;;;;25.33;22.33;;;;;7.18;73.32;99772.00;5058189;28;45356;-57
2023/11/30 02:01:00;;;;;;;;;16.00;16.00;;;;;7.17;73.02;99783.50;5091754;27;48438;-56
2023/11/30 02:03:26;;;;;;;;;25.00;21.00;;;;;7.16;73.24;99777.38;5058277;28;75469;-57
2023/11/30 02:05:51;;;;;;;;;27.00;20.67;;;;;7.18;73.18;99777.28;5058918;28;45362;-56
2023/11/30 02:08:17;;;;;;;;;25.00;23.00;;;;;7.18;73.11;99759.59;5056887;28;67965;-57
2023/11/30 02:10:42;;;;;;;;;25.00;22.67;;;;;7.17;73.17;99755.28;5058656;28;52134;-57
2023/11/30 02:13:08;;;;;;;;;20.67;17.67;;;;;7.17;73.19;99760.56;5057118;28;46443;-57
2023/11/30 02:15:33;;;;;;;;;24.00;22.33;;;;;7.16;73.11;99756.22;5062199;28;67860;-57
2023/11/30 02:17:59;;;;;;;;;21.67;21.67;;;;;7.15;73.06;99754.50;5058677;28;45279;-57
2023/11/30 02:20:24;;;;;;;;;29.00;23.00;;;;;7.14;73.09;99766.00;5061471;28;63876;-56
2023/11/30 02:22:49;;;;;;;;;25.67;21.67;;;;;7.13;73.21;99764.28;5057996;28;45254;-57
2023/11/30 02:25:14;;;;;;;;;25.67;22.67;;;;;7.10;73.35;99761.81;5057221;28;72745;-57
2023/11/30 02:27:40;;;;;;;;;27.67;22.67;;;;;7.06;73.37;99758.47;5057582;28;69440;-56
2023/11/30 02:30:06;;;;;;;;;28.00;18.00;;;;;7.00;73.11;99769.38;5058253;28;68953;-56
2023/11/30 02:32:31;;;;;;;;;24.00;23.00;;;;;6.93;73.30;99774.09;5058568;28;45600;-56
2023/11/30 02:34:56;;;;;;;;;24.33;22.33;;;;;6.89;73.71;99766.41;5059326;28;73317;-56
2023/11/30 02:37:22;;;;;;;;;24.67;23.67;;;;;6.85;73.45;99756.94;5057875;28;67035;-56
2023/11/30 02:39:47;;;;;;;;;24.00;23.67;;;;;6.79;73.44;99747.53;5056876;28;70416;-57
2023/11/30 02:42:13;;;;;;;;;28.00;22.33;;;;;6.75;73.94;99738.91;5056727;28;75689;-56
2023/11/30 02:44:38;;;;;;;;;25.67;23.33;;;;;6.74;73.67;99737.19;5062660;28;45501;-57
2023/11/30 02:47:03;;;;;;;;;28.33;23.00;;;;;6.71;73.94;99737.34;5059096;28;50974;-57
2023/11/30 02:49:29;;;;;;;;;26.33;24.00;;;;;6.69;73.94;99733.94;5056829;28;68460;-58
2023/11/30 02:51:54;;;;;;;;;24.33;21.67;;;;;6.68;73.97;99721.66;5054859;28;73143;-57
2023/11/30 02:54:19;;;;;;;;;29.00;22.33;;;;;6.69;74.12;99718.06;5057543;28;46755;-57
2023/11/30 02:56:45;;;;;;;;;28.67;22.33;;;;;6.68;74.05;99705.78;5056725;28;45465;-57
2023/11/30 02:59:10;;;;;;;;;26.67;22.33;;;;;6.68;73.99;99703.16;5059449;28;67857;-55
2023/11/30 03:01:42;;;;;;;;;33.33;24.33;;;;;6.66;74.03;99697.06;5052537;28;50607;-56
2023/11/30 03:04:08;;;;;;;;;22.00;22.00;;;;;6.66;74.09;99707.66;5056570;28;45414;-56
2023/11/30 03:06:33;;;;;;;;;28.00;25.00;;;;;6.61;73.99;99710.53;5056413;28;69283;-56
2023/11/30 03:08:58;;;;;;;;;29.67;24.00;;;;;6.59;74.17;99703.63;5061886;28;52979;-57
2023/11/30 03:11:24;;;;;;;;;30.00;26.00;;;;;6.55;74.51;99708.19;5056841;28;71597;-55
2023/11/30 03:13:49;;;;;;;;;30.00;25.33;;;;;6.52;74.07;99712.78;5057552;28;45425;-60
2023/11/30 03:16:22;;;;;;;;;25.67;23.00;;;;;6.48;74.15;99725.31;5057828;28;45424;-57
2023/11/30 03:18:47;;;;;;;;;23.00;22.00;;;;;6.46;74.28;99722.72;5058963;28;45329;-56
2023/11/30 03:21:17;;;;;;;;;28.67;25.33;;;;;6.46;74.61;99711.31;5054268;28;74980;-59
2023/11/30 03:23:42;;;;;;;;;28.33;22.67;;;;;6.45;74.58;99699.03;5058452;28;45701;-57
2023/11/30 03:26:07;;;;;;;;;33.67;26.67;;;;;6.45;74.61;99706.94;5057331;28;45356;-56
2023/11/30 03:28:33;;;;;;;;;27.00;26.00;;;;;6.43;74.50;99701.75;5089062;27;70576;-56
2023/11/30 03:30:58;;;;;;;;;31.33;26.33;;;;;6.42;74.36;99696.56;5056215;28;74565;-56
2023/11/30 03:33:23;;;;;;;;;28.67;23.67;;;;;6.39;74.21;99688.78;5058349;28;74659;-58
2023/11/30 03:35:50;;;;;;;;;27.00;23.33;;;;;6.37;74.77;99685.34;5061299;28;47182;-55
2023/11/30 03:38:16;;;;;;;;;32.00;27.33;;;;;6.33;74.52;99695.22;5087795;27;45515;-56
2023/11/30 03:40:41;;;;;;;;;29.33;26.00;;;;;6.30;74.48;99690.09;5061265;28;46450;-56
2023/11/30 03:43:06;;;;;;;;;29.00;25.00;;;;;6.26;74.60;99689.38;5052525;28;72654;-56
2023/11/30 03:45:33;;;;;;;;;26.67;25.67;;;;;6.20;74.82;99679.13;5058939;28;69147;-55
2023/11/30 03:47:59;;;;;;;;;37.67;31.00;;;;;6.17;74.90;99683.72;5053221;28;45355;-56
2023/11/30 03:50:24;;;;;;;;;26.67;23.33;;;;;6.12;74.90;99681.28;5061845;28;46290;-56
2023/11/30 03:52:49;;;;;;;;;33.67;26.00;;;;;6.09;74.95;99686.75;5060390;28;72921;-56
2023/11/30 03:55:15;;;;;;;;;29.33;27.67;;;;;6.06;74.86;99677.19;5064715;28;45408;-55
2023/11/30 03:57:40;;;;;;;;;29.00;26.33;;;;;6.04;75.09;99668.47;5059412;28;69431;-55
2023/11/30 04:00:07;;;;;;;;;27.67;25.00;;;;;6.01;75.15;99666.00;5060118;28;73807;-57
2023/11/30 04:02:33;;;;;;;;;30.00;24.00;;;;;5.99;75.10;99674.91;5061307;28;45255;-56
2023/11/30 04:04:59;;;;;;;;;24.67;21.33;;;;;5.96;75.30;99678.53;5059405;28;69452;-55
2023/11/30 04:07:29;;;;;;;;;31.00;26.00;;;;;5.93;75.02;99683.94;5063674;28;45631;-56
2023/11/30 04:09:55;;;;;;;;;23.67;23.67;;;;;5.89;75.19;99675.34;5057983;28;46186;-56
2023/11/30 04:12:20;;;;;;;;;26.67;22.00;;;;;5.88;74.93;99667.47;5060538;28;45475;-57
2023/11/30 04:14:45;;;;;;;;;27.33;26.00;;;;;5.85;75.27;99667.63;5059905;28;67604;-56
2023/11/30 04:17:11;;;;;;;;;30.00;24.33;;;;;5.84;75.08;99671.19;5092113;27;67118;-56
2023/11/30 04:19:36;;;;;;;;;25.67;23.00;;;;;5.82;75.34;99668.63;5063939;28;57938;-56
2023/11/30 04:22:01;;;;;;;;;23.67;23.67;;;;;5.84;75.42;99676.47;5059674;28;71905;-56
2023/11/30 04:24:27;;;;;;;;;26.67;26.33;;;;;5.84;75.30;99679.09;5061540;28;45429;-56
2023/11/30 04:26:53;;;;;;;;;32.67;24.33;;;;;5.86;75.49;99683.38;5060610;28;69443;-56
2023/11/30 04:29:18;;;;;;;;;26.33;22.00;;;;;5.89;75.54;99674.47;5072757;27;46784;-56
2023/11/30 04:31:43;;;;;;;;;29.00;25.67;;;;;5.91;75.61;99672.63;5060140;28;56825;-57
2023/11/30 04:34:09;;;;;;;;;27.33;21.00;;;;;5.93;75.51;99662.81;5061459;28;45541;-57
2023/11/30 04:36:34;;;;;;;;;28.67;24.67;;;;;5.96;74.87;99658.25;5060701;28;45251;-56
2023/11/30 04:39:00;;;;;;;;;28.33;20.00;;;;;5.97;75.13;99651.19;5060137;28;47363;-56
2023/11/30 04:41:25;;;;;;;;;31.67;27.00;;;;;5.97;74.95;99651.19;5061378;28;73456;-55
2023/11/30 04:43:50;;;;;;;;;26.00;24.33;;;;;5.96;75.10;99662.69;5060284;28;45386;-56
2023/11/30 04:46:16;;;;;;;;;29.67;28.00;;;;;5.95;74.92;99667.09;5058218;28;70640;-56
2023/11/30 04:48:41;;;;;;;;;26.33;24.67;;;;;5.96;75.14;99666.19;5058548;28;74510;-56
2023/11/30 04:51:07;;;;;;;;;27.67;23.67;;;;;6.00;74.68;99666.03;5060064;28;45537;-56
2023/11/30 04:53:32;;;;;;;;;25.33;25.00;;;;;6.02;74.61;99657.13;5058596;28;45515;-56
2023/11/30 04:55:58;;;;;;;;;29.67;25.67;;;;;6.02;74.75;99646.56;5059654;28;45357;-56
2023/11/30 04:58:23;;;;;;;;;37.33;29.67;;;;;6.02;74.52;99641.28;5059038;28;74386;-56
2023/11/30 05:00:49;;;;;;;;;23.67;22.00;;;;;6.01;74.20;99651.91;5061787;28;45653;-56
2023/11/30 05:03:14;;;;;;;;;24.67;23.00;;;;;6.00;74.72;99659.00;5059692;28;45278;-56
2023/11/30 05:05:40;;;;;;;;;28.00;25.33;;;;;6.01;74.97;99660.72;5059051;28;45379;-56
2023/11/30 05:08:05;;;;;;;;;26.00;24.33;;;;;6.00;74.58;99664.28;5058992;28;57292;-57
2023/11/30 05:10:30;;;;;;;;;25.00;24.33;;;;;6.00;74.47;99651.09;5059046;28;45403;-56
2023/11/30 05:12:56;;;;;;;;;31.00;28.33;;;;;6.01;74.64;99651.91;5058851;28;66571;-56
2023/11/30 05:15:21;;;;;;;;;26.33;26.33;;;;;6.00;74.70;99653.72;5087530;27;69437;-56
2023/11/30 05:17:46;;;;;;;;;28.33;24.67;;;;;5.98;74.64;99652.94;5058348;28;59907;-56
2023/11/30 05:20:11;;;;;;;;;30.00;26.00;;;;;5.96;74.52;99646.84;5059554;28;70136;-56
2023/11/30 05:22:37;;;;;;;;;27.67;24.00;;;;;5.91;74.14;99644.44;5059973;28;45130;-56
2023/11/30 05:25:02;;;;;;;;;31.67;24.67;;;;;5.86;74.18;99648.22;5060977;28;52978;-56
2023/11/30 05:27:28;;;;;;;;;28.33;23.00;;;;;5.79;74.42;99645.88;5060151;28;45335;-55
2023/11/30 05:29:53;;;;;;;;;22.67;21.00;;;;;5.74;74.32;99642.59;5060965;28;45412;-56
2023/11/30 05:32:18;;;;;;;;;21.33;21.33;;;;;5.68;74.23;99644.69;5059192;28;69158;-56
2023/11/30 05:34:44;;;;;;;;;25.67;24.67;;;;;5.60;74.56;99648.53;5061190;28;70576;-58
2023/11/30 05:37:09;;;;;;;;;23.00;21.33;;;;;5.54;74.76;99654.13;5058183;28;74668;-56
2023/11/30 05:39:36;;;;;;;;;22.67;17.67;;;;;5.51;74.29;99650.78;5058521;28;72144;-57
2023/11/30 05:42:03;;;;;;;;;20.67;19.33;;;;;5.47;74.66;99653.56;5058825;28;45374;-56
2023/11/30 05:44:28;;;;;;;;;25.67;21.00;;;;;5.50;75.53;99656.97;5058003;28;45471;-56
2023/11/30 05:46:54;;;;;;;;;24.33;20.33;;;;;5.55;75.10;99662.88;5059410;28;65645;-55
2023/11/30 05:49:19;;;;;;;;;24.67;19.33;;;;;5.59;74.88;99665.31;5059278;28;45522;-55
2023/11/30 05:51:44;;;;;;;;;21.00;18.00;;;;;5.62;74.93;99659.88;5057101;28;68311;-57
2023/11/30 05:54:10;;;;;;;;;21.00;19.00;;;;;5.66;74.76;99660.59;5056187;28;62015;-58
2023/11/30 05:56:35;;;;;;;;;19.67;18.33;;;;;5.70;74.67;99656.03;5058063;28;46754;-56
2023/11/30 05:59:01;;;;;;;;;25.00;19.33;;;;;5.68;74.29;99650.81;5061919;28;45441;-56
2023/11/30 06:01:26;;;;;;;;;20.67;19.67;;;;;5.69;74.71;99651.69;5057859;28;69482;-56
2023/11/30 06:03:52;;;;;;;;;22.33;20.00;;;;;5.72;74.34;99651.53;5063558;28;45458;-54
2023/11/30 06:06:17;;;;;;;;;21.67;19.00;;;;;5.75;74.48;99641.69;5058916;28;46262;-55
2023/11/30 06:08:43;;;;;;;;;22.33;20.67;;;;;5.77;74.22;99633.69;5056580;28;45218;-55
2023/11/30 06:11:08;;;;;;;;;19.33;19.00;;;;;5.77;74.04;99625.78;5059323;28;45430;-56
2023/11/30 06:13:34;;;;;;;;;18.33;17.33;;;;;5.76;74.11;99627.56;5057922;28;46262;-56
2023/11/30 06:15:59;;;;;;;;;16.67;13.67;;;;;5.76;73.93;99624.94;5058885;28;45899;-55
2023/11/30 06:18:25;;;;;;;;;24.00;19.33;;;;;5.75;74.39;99632.91;5057091;28;55588;-55
2023/11/30 06:20:50;;;;;;;;;18.33;17.00;;;;;5.75;74.03;99622.34;5059784;28;45820;-56
2023/11/30 06:23:15;;;;;;;;;21.33;16.00;;;;;5.75;73.64;99625.84;5059572;28;45362;-55
2023/11/30 06:25:44;;;;;;;;;20.00;15.67;;;;;5.74;73.61;99628.56;5061987;28;75513;-55
2023/11/30 06:28:09;;;;;;;;;15.67;15.67;;;;;5.73;74.09;99625.06;5059949;28;66895;-54
2023/11/30 06:30:34;;;;;;;;;19.67;18.67;;;;;5.75;74.14;99617.06;5059273;28;48783;-56
2023/11/30 06:32:59;;;;;;;;;15.67;15.33;;;;;5.74;73.49;99613.59;5057261;28;69718;-56
2023/11/30 06:35:25;;;;;;;;;17.00;14.33;;;;;5.74;73.74;99623.28;5050446;28;75693;-55
2023/11/30 06:37:50;;;;;;;;;16.00;16.00;;;;;5.74;73.52;99628.56;5062420;28;45338;-55
2023/11/30 06:40:15;;;;;;;;;12.33;12.33;;;;;5.75;73.78;99639.06;5055364;28;60789;-55
2023/11/30 06:42:41;;;;;;;;;17.67;14.33;;;;;5.80;73.57;99639.69;5054291;28;46126;-55
2023/11/30 06:45:07;;;;;;;;;18.67;17.00;;;;;5.80;73.42;99638.81;5061972;28;74520;-55
2023/11/30 06:47:32;;;;;;;;;16.00;14.67;;;;;5.78;73.18;99633.63;5067810;28;45360;-56
2023/11/30 06:49:59;;;;;;;;;13.67;13.67;;;;;5.77;73.25;99637.16;5070059;28;45708;-56
2023/11/30 06:52:25;;;;;;;;;12.67;12.67;;;;;5.75;73.26;99625.84;5066276;28;45749;-56
2023/11/30 06:54:50;;;;;;;;;19.00;17.67;;;;;5.72;72.80;99626.00;5063980;28;46859;-54
2023/11/30 06:57:15;;;;;;;;;18.00;13.33;;;;;5.66;73.29;99628.06;5055541;28;45787;-56
2023/11/30 06:59:43;;;;;;;;;22.00;19.67;;;;;5.60;72.88;99622.16;5055848;28;45352;-55
2023/11/30 07:02:08;;;;;;;;;16.67;15.67;;;;;5.58;72.83;99628.44;5064525;28;45539;-54
2023/11/30 07:04:35;;;;;;;;;19.33;17.00;;;;;5.57;73.40;99629.38;5063010;28;46424;-55
2023/11/30 07:07:00;;;;;;;;;18.00;16.00;;;;;5.55;73.70;99631.22;5068723;28;45603;-56
2023/11/30 07:09:25;;;;;;;;;15.33;15.33;;;;;5.53;73.27;99623.41;5067610;28;45481;-57
2023/11/30 07:11:51;;;;;;;;;18.33;16.67;;;;;5.51;73.68;99621.75;5073703;28;46063;-58
2023/11/30 07:14:16;;;;;;;;;20.67;18.67;;;;;5.51;73.53;99625.25;5065158;28;46854;-57
2023/11/30 07:16:41;;;;;;;;;19.67;17.33;;;;;5.52;73.83;99619.03;5067428;28;71864;-58
2023/11/30 07:19:07;;;;;;;;;19.00;13.67;;;;;5.52;73.48;99626.13;5063616;28;51047;-57
2023/11/30 07:21:32;;;;;;;;;17.33;16.00;;;;;5.50;73.29;99625.31;5067962;28;45222;-57
2023/11/30 07:23:59;;;;;;;;;23.00;20.33;;;;;5.47;73.75;99632.47;5064736;28;45283;-57
2023/11/30 07:26:24;;;;;;;;;19.67;14.67;;;;;5.47;73.74;99631.59;5057573;28;45632;-57
2023/11/30 07:28:49;;;;;;;;;17.33;14.33;;;;;5.45;73.43;99629.03;5056212;28;64886;-57
2023/11/30 07:31:19;;;;;;;;;17.67;16.00;;;;;5.40;73.27;99636.31;5062021;28;70717;-58
2023/11/30 07:33:44;;;;;;;;;17.67;17.00;;;;;5.39;73.28;99646.94;5056130;28;46604;-57
2023/11/30 07:36:10;;;;;;;;;16.00;13.67;;;;;5.37;73.40;99654.94;5061797;28;66147;-58
2023/11/30 07:38:36;;;;;;;;;18.00;16.33;;;;;5.34;73.00;99655.03;5053374;28;45531;-60
2023/11/30 07:41:01;;;;;;;;;23.33;15.67;;;;;5.32;73.44;99654.28;5057990;28;45539;-60
2023/11/30 07:43:27;;;;;;;;;15.67;15.33;;;;;5.30;73.22;99654.31;5073610;28;45451;-59
2023/11/30 07:45:52;;;;;;;;;16.33;14.67;;;;;5.31;73.26;99649.94;5066769;28;45297;-60
2023/11/30 07:48:18;;;;;;;;;11.67;11.67;;;;;5.30;73.50;99650.84;5057706;28;69257;-59
2023/11/30 07:50:43;;;;;;;;;15.67;12.33;;;;;5.30;73.54;99653.50;5042184;28;45391;-59
2023/11/30 07:53:09;;;;;;;;;13.33;13.00;;;;;5.29;73.63;99657.03;5058564;28;46436;-60
2023/11/30 07:55:36;;;;;;;;;16.00;14.00;;;;;5.28;73.44;99658.00;5060186;28;45403;-60
2023/11/30 07:58:01;;;;;;;;;23.00;16.67;;;;;5.27;74.02;99648.38;5070268;28;45417;-59
2023/11/30 08:00:27;;;;;;;;;12.33;11.33;;;;;5.29;73.31;99646.50;5064241;27;45253;-55
2023/11/30 08:02:54;;;;;;;;;16.33;14.67;;;;;5.30;73.72;99658.75;5056940;28;46182;-62
2023/11/30 08:05:22;;;;;;;;;18.33;12.67;;;;;5.29;73.33;99660.56;5060008;28;45399;-63
2023/11/30 08:07:47;;;;;;;;;17.67;15.00;;;;;5.29;73.51;99664.94;5062273;28;45388;-61
2023/11/30 08:10:13;;;;;;;;;18.67;18.00;;;;;5.31;73.24;99668.38;5064046;28;45286;-61
2023/11/30 08:12:38;;;;;;;;;17.67;15.00;;;;;5.30;73.06;99670.16;5060019;28;61927;-61
2023/11/30 08:15:04;;;;;;;;;19.33;16.00;;;;;5.31;73.00;99689.47;5060486;28;45241;-62
2023/11/30 08:17:29;;;;;;;;;16.67;12.00;;;;;5.29;73.33;99688.69;5061236;28;45269;-61
2023/11/30 08:19:55;;;;;;;;;17.00;17.00;;;;;5.29;73.23;99693.97;5059612;28;45267;-62
2023/11/30 08:22:20;;;;;;;;;18.00;15.50;;;;;5.28;73.35;99687.00;5093371;27;46548;-61
2023/11/30 08:24:45;;;;;;;;;20.67;16.33;;;;;5.27;73.29;99688.75;5060123;28;63280;-61
2023/11/30 08:27:11;;;;;;;;;20.33;18.00;;;;;5.26;73.35;99684.41;5059637;28;68273;-62
2023/11/30 08:29:36;;;;;;;;;17.00;15.33;;;;;5.28;73.50;99687.00;5060604;28;45575;-61
2023/11/30 08:32:02;;;;;;;;;14.33;14.33;;;;;5.27;73.30;99678.22;5060248;28;46059;-61
2023/11/30 08:34:28;;;;;;;;;23.67;18.67;;;;;5.27;73.31;99680.84;5060454;28;45385;-62
2023/11/30 08:36:53;;;;;;;;;18.00;16.00;;;;;5.27;73.37;99677.38;5060050;28;52323;-61
2023/11/30 08:39:23;;;;;;;;;23.33;22.33;;;;;5.30;73.09;99685.13;5060181;28;52278;-61
2023/11/30 08:41:48;;;;;;;;;22.00;17.00;;;;;5.29;73.47;99681.66;5060270;28;46187;-61
2023/11/30 08:44:14;;;;;;;;;24.00;17.67;;;;;5.33;72.94;99684.13;5060000;28;45215;-62
2023/11/30 08:46:39;;;;;;;;;17.00;17.00;;;;;5.35;73.37;99685.78;5059830;28;69117;-63
2023/11/30 08:49:04;;;;;;;;;23.67;20.67;;;;;5.38;73.30;99697.97;5059513;28;52398;-62
2023/11/30 08:51:30;;;;;;;;;25.00;20.33;;;;;5.41;73.37;99700.44;5059724;28;75484;-62
2023/11/30 08:53:55;;;;;;;;;22.67;17.33;;;;;5.44;72.90;99710.88;5058222;28;56601;-62
2023/11/30 08:56:20;;;;;;;;;24.33;19.00;;;;;5.47;72.80;99722.16;5059239;28;68309;-62
2023/11/30 08:58:45;;;;;;;;;31.00;17.67;;;;;5.50;72.77;99715.00;5059326;28;69441;-63
2023/11/30 09:01:11;;;;;;;;;24.00;21.33;;;;;5.55;72.72;99729.69;5059800;28;55025;-63
2023/11/30 09:03:37;;;;;;;;;20.33;16.00;;;;;5.57;72.72;99727.84;5060177;28;48531;-63
2023/11/30 09:06:02;;;;;;;;;22.67;18.67;;;;;5.59;72.27;99722.50;5059977;28;45332;-63
2023/11/30 09:08:28;;;;;;;;;22.00;18.00;;;;;5.58;72.43;99726.03;5059856;28;45521;-63
2023/11/30 09:10:53;;;;;;;;;20.00;18.00;;;;;5.58;71.99;99732.19;5058399;28;75724;-62
2023/11/30 09:13:18;;;;;;;;;22.00;18.00;;;;;5.57;72.32;99727.00;5058487;28;45354;-63
2023/11/30 09:15:44;;;;;;;;;20.67;18.00;;;;;5.60;71.82;99732.13;5059335;28;66627;-63
2023/11/30 09:18:10;;;;;;;;;24.67;18.67;;;;;5.67;72.58;99735.31;5058434;28;45355;-63
2023/11/30 09:20:36;;;;;;;;;23.00;18.00;;;;;5.76;72.38;99730.50;5052218;28;45604;-63
2023/11/30 09:23:03;;;;;;;;;16.67;15.67;;;;;5.87;71.99;99729.13;5058260;28;45360;-62
2023/11/30 09:25:29;;;;;;;;;23.33;19.33;;;;;5.97;71.91;99733.00;5059924;28;45554;-63
2023/11/30 09:27:54;;;;;;;;;18.00;17.00;;;;;6.07;71.40;99728.19;5059350;28;45312;-63
2023/11/30 09:30:20;;;;;;;;;24.00;21.67;;;;;6.17;71.28;99739.19;5058789;28;74556;-62
2023/11/30 09:32:45;;;;;;;;;20.00;19.00;;;;;6.25;71.23;99740.50;5059163;28;45242;-62
2023/11/30 09:35:11;;;;;;;;;21.00;17.33;;;;;6.32;70.19;99741.03;5058645;28;45369;-62
2023/11/30 09:37:37;;;;;;;;;17.67;16.00;;;;;6.38;69.80;99731.97;5059863;28;45527;-63
2023/11/30 09:40:05;;;;;;;;;15.67;15.67;;;;;6.57;70.03;99716.03;5058038;28;46238;-63
2023/11/30 09:42:31;;;;;;;;;24.00;19.67;;;;;7.55;70.02;99722.41;5057730;28;45389;-63
2023/11/30 09:45:00;;;;;;;;;18.00;17.00;;;;;8.90;67.29;99723.59;5059424;28;45399;-63
2023/11/30 09:47:25;;;;;;;;;16.00;14.33;;;;;10.17;64.64;99713.03;5056665;28;45243;-65
2023/11/30 09:49:51;;;;;;;;;19.33;15.67;;;;;11.35;59.35;99708.66;5058214;28;45567;-63
2023/11/30 09:52:16;;;;;;;;;17.67;16.67;;;;;12.17;56.86;99706.31;5059331;28;45294;-63
2023/11/30 09:54:42;;;;;;;;;16.00;14.67;;;;;12.96;55.89;99704.88;5058540;28;63159;-64
2023/11/30 09:57:07;;;;;;;;;14.67;12.67;;;;;13.56;56.29;99711.75;5058835;28;45592;-63
2023/11/30 09:59:32;;;;;;;;;18.67;16.33;;;;;13.90;51.55;99713.53;5058473;28;63254;-65
2023/11/30 10:02:01;;;;;;;;;15.67;14.33;;;;;13.87;52.40;99714.63;5057533;28;45346;-63
2023/11/30 10:04:27;;;;;;;;;22.33;20.67;;;;;14.07;51.47;99710.31;5059278;28;45651;-65
2023/11/30 10:06:56;;;;;;;;;20.00;17.33;;;;;14.21;52.40;99703.84;5058608;28;45627;-65
2023/11/30 10:09:22;;;;;;;;;19.00;18.33;;;;;14.17;51.11;99709.56;5059506;28;45409;-65
2023/11/30 10:11:47;;;;;;;;;20.33;17.33;;;;;14.09;50.38;99710.19;5058635;28;45485;-64
2023/11/30 10:14:13;;;;;;;;;18.00;16.00;;;;;13.83;50.02;99715.00;5057882;28;69100;-65
2023/11/30 10:16:39;;;;;;;;;21.67;17.67;;;;;13.56;51.89;99706.41;5057894;28;68954;-64
2023/11/30 10:19:04;;;;;;;;;18.67;15.33;;;;;13.11;51.44;99711.69;5058758;28;46218;-65
2023/11/30 10:21:30;;;;;;;;;19.00;14.00;;;;;12.71;52.16;99710.28;5056807;28;71796;-64
2023/11/30 10:23:57;;;;;;;;;14.33;13.33;;;;;12.79;52.21;99706.19;5057718;28;45354;-66
2023/11/30 10:26:23;;;;;;;;;16.33;15.00;;;;;13.04;51.12;99697.97;5057279;28;45630;-63
2023/11/30 10:28:52;;;;;;;;;17.33;14.00;;;;;13.08;49.46;99683.41;5057553;28;46350;-65
2023/11/30 10:31:19;;;;;;;;;18.00;15.00;;;;;13.10;50.57;99691.31;5057169;28;45403;-66
2023/11/30 10:33:48;;;;;;;;;18.00;15.00;;;;;13.37;50.75;99688.31;5057715;28;45518;-68
2023/11/30 10:36:15;;;;;;;;;20.00;18.33;;;;;13.82;51.07;99683.88;5056872;28;45639;-66
2023/11/30 10:38:41;;;;;;;;;27.00;19.67;;;;;14.27;51.56;99677.56;5056335;28;71882;-64
2023/11/30 10:41:12;;;;;;;;;22.00;19.00;;;;;14.37;49.29;99673.16;5056722;28;45650;-65
2023/11/30 10:43:43;;;;;;;;;15.33;14.00;;;;;14.33;48.91;99669.03;5056760;28;45232;-65
2023/11/30 10:46:09;;;;;;;;;15.67;14.33;;;;;14.48;47.36;99665.06;5056955;28;45706;-66
2023/11/30 10:48:38;;;;;;;;;16.67;16.67;;;;;14.87;47.34;99665.38;5056946;28;50825;-65
2023/11/30 10:51:05;;;;;;;;;15.00;14.00;;;;;15.18;48.07;99665.38;5057993;28;59830;-66
2023/11/30 10:53:34;;;;;;;;;13.67;13.00;;;;;15.04;46.17;99649.66;5057061;28;45457;-65
2023/11/30 10:55:59;;;;;;;;;16.00;15.67;;;;;14.72;45.51;99648.78;5057717;28;45428;-67
2023/11/30 10:58:25;;;;;;;;;14.00;14.00;;;;;14.29;47.03;99633.69;5056749;28;48138;-67
2023/11/30 11:00:59;;;;;;;;;17.67;12.67;;;;;14.00;46.66;99630.75;5058525;28;45477;-66
2023/11/30 11:03:27;;;;;;;;;15.00;12.33;;;;;14.04;47.04;99624.16;5057284;28;45339;-66
2023/11/30 11:05:54;;;;;;;;;20.67;16.67;;;;;14.11;46.59;99635.22;5056536;28;45574;-66
2023/11/30 11:08:19;;;;;;;;;14.00;12.67;;;;;14.15;46.88;99632.16;5058181;28;47369;-67
2023/11/30 11:10:47;;;;;;;;;13.00;11.67;;;;;14.31;47.99;99623.69;5090913;27;45326;-66
2023/11/30 11:13:23;;;;;;;;;13.67;12.67;;;;;14.68;46.59;99641.16;5056790;28;45572;-67
2023/11/30 11:15:59;;;;;;;;;14.00;12.67;;;;;15.01;45.73;99634.69;5057077;28;45684;-67
2023/11/30 11:18:31;;;;;;;;;11.67;11.00;;;;;15.29;45.34;99632.31;5058208;28;46037;-66